Time;durP1;ratioP1;P1;durP2;ratioP2;P2;SDS_P1;SDS_P2;PMS_P1;PMS_P2;Temp;Humidity;BMP_temperature;BMP_pressure;BME280_temperature;BME280_humidity;BME280_pressure;Samples;Min_cycle;Max_cycle;Signal;HPM_P1;HPM_P2
2022/12/11 00:00:05;;;;;;;14.45;7.20;;;-1.10;99.90;;;;;;4987246;28;20472;-37
2022/12/11 00:02:31;;;;;;;12.88;7.47;;;-1.00;99.90;;;;;;4980603;28;20515;-34
2022/12/11 00:04:56;;;;;;;12.65;6.50;;;-1.00;99.90;;;;;;4983948;28;20046;-35
2022/12/11 00:07:22;;;;;;;14.80;8.40;;;-1.00;99.90;;;;;;4982882;28;20054;-37
2022/12/11 00:09:48;;;;;;;15.88;8.85;;;-0.90;99.90;;;;;;4986597;28;20034;-37
2022/12/11 00:12:13;;;;;;;15.48;7.63;;;-0.90;99.90;;;;;;4984968;28;20089;-35
2022/12/11 00:14:39;;;;;;;20.38;10.32;;;-0.80;99.90;;;;;;4988348;28;20022;-36
2022/12/11 00:17:05;;;;;;;12.68;7.00;;;-0.80;99.90;;;;;;4987913;28;20521;-38
2022/12/11 00:19:30;;;;;;;15.18;8.32;;;-0.70;99.90;;;;;;4985961;28;20034;-38
2022/12/11 00:21:56;;;;;;;10.38;7.15;;;-0.80;99.90;;;;;;4994206;28;20379;-37
2022/12/11 00:24:21;;;;;;;12.93;6.32;;;-0.80;99.90;;;;;;4979673;28;20026;-37
2022/12/11 00:26:47;;;;;;;6.85;5.07;;;-0.80;99.90;;;;;;4979996;28;20030;-32
2022/12/11 00:29:13;;;;;;;9.13;6.93;;;-0.80;99.90;;;;;;4981054;28;20034;-36
2022/12/11 00:31:41;;;;;;;15.93;10.15;;;-0.80;99.90;;;;;;4983027;28;20030;-38
2022/12/11 00:34:07;;;;;;;17.23;9.23;;;-0.70;99.90;;;;;;4978976;28;20053;-31
2022/12/11 00:36:33;;;;;;;13.52;8.65;;;-0.70;99.90;;;;;;4979461;28;20035;-37
2022/12/11 00:39:01;;;;;;;17.13;8.77;;;-0.70;99.90;;;;;;4981397;28;20043;-35
2022/12/11 00:41:27;;;;;;;19.40;8.40;;;-0.60;99.90;;;;;;4983996;28;21819;-37
2022/12/11 00:43:52;;;;;;;16.17;9.02;;;-0.60;99.90;;;;;;4983337;28;20168;-33
2022/12/11 00:46:18;;;;;;;16.60;7.53;;;-0.60;99.90;;;;;;4982613;28;20035;-37
2022/12/11 00:48:45;;;;;;;14.32;8.30;;;-0.60;99.90;;;;;;4983997;28;20096;-38
2022/12/11 00:51:11;;;;;;;20.63;7.88;;;-0.50;99.90;;;;;;4984977;28;20038;-37
2022/12/11 00:53:37;;;;;;;15.45;8.30;;;-0.50;99.90;;;;;;4985119;28;20057;-35
2022/12/11 00:56:15;;;;;;;16.25;7.63;;;-0.60;99.90;;;;;;4984288;28;20069;-36
2022/12/11 00:58:41;;;;;;;11.23;6.93;;;-0.50;99.90;;;;;;4983475;28;20712;-34
2022/12/11 01:01:12;;;;;;;9.93;6.28;;;-0.70;99.90;;;;;;4985704;28;20026;-33
2022/12/11 01:03:38;;;;;;;15.45;8.48;;;-0.70;99.90;;;;;;4985448;28;20059;-34
2022/12/11 01:06:05;;;;;;;13.45;8.18;;;-0.70;99.90;;;;;;4985036;28;20064;-38
2022/12/11 01:08:30;;;;;;;12.13;7.57;;;-0.60;99.90;;;;;;4983693;28;20060;-38
2022/12/11 01:11:05;;;;;;;10.45;6.60;;;-0.70;99.90;;;;;;4984614;28;20077;-36
2022/12/11 01:13:30;;;;;;;13.50;8.07;;;-0.60;99.90;;;;;;4984054;28;20034;-37
2022/12/11 01:15:56;;;;;;;6.20;5.15;;;-0.60;99.90;;;;;;4985638;28;20077;-36
2022/12/11 01:18:22;;;;;;;11.50;6.70;;;-0.60;99.90;;;;;;4986858;28;20100;-38
2022/12/11 01:20:48;;;;;;;15.48;7.50;;;-0.70;99.90;;;;;;4984148;28;20741;-33
2022/12/11 01:23:13;;;;;;;10.50;6.38;;;-0.70;99.90;;;;;;4984164;28;20040;-36
2022/12/11 01:25:40;;;;;;;5.35;4.03;;;-0.70;99.90;;;;;;4983735;28;20093;-38
2022/12/11 01:28:06;;;;;;;9.55;5.95;;;-0.70;99.90;;;;;;4980289;28;20038;-38
2022/12/11 01:30:32;;;;;;;14.18;8.57;;;-0.70;99.90;;;;;;4982123;28;20081;-36
2022/12/11 01:32:59;;;;;;;5.13;4.47;;;-0.80;99.90;;;;;;4980602;28;20095;-32
2022/12/11 01:35:25;;;;;;;12.52;7.35;;;-0.80;99.90;;;;;;4985335;28;20510;-39
2022/12/11 01:37:50;;;;;;;11.43;5.70;;;-0.80;99.90;;;;;;4983702;28;20030;-38
2022/12/11 01:40:18;;;;;;;4.78;4.47;;;-0.80;99.90;;;;;;4984496;28;20033;-33
2022/12/11 01:42:44;;;;;;;12.45;7.70;;;-0.90;99.90;;;;;;4983769;28;20118;-38
2022/12/11 01:45:32;;;;;;;3.45;3.15;;;-0.90;99.90;;;;;;4986153;28;20566;-38
2022/12/11 01:48:09;;;;;;;12.13;6.78;;;-0.90;99.90;;;;;;4981678;28;20122;-37
2022/12/11 01:51:10;;;;;;;18.42;9.13;;;-0.90;99.90;;;;;;4983217;28;20030;-34
2022/12/11 01:53:41;;;;;;;3.35;3.08;;;-0.80;99.90;;;;;;4973689;28;20039;-38
2022/12/11 01:56:07;;;;;;;16.98;8.30;;;-1.00;99.90;;;;;;4978988;28;20030;-40
2022/12/11 01:58:38;;;;;;;4.38;3.92;;;-0.90;99.90;;;;;;4985847;28;20026;-30
2022/12/11 02:01:04;;;;;;;7.70;5.00;;;-0.90;99.90;;;;;;4986425;28;20041;-32
2022/12/11 02:03:30;;;;;;;12.00;6.20;;;-0.90;99.90;;;;;;4982667;28;20026;-31
2022/12/11 02:06:00;;;;;;;4.43;3.72;;;-1.00;99.90;;;;;;4985932;28;20037;-34
2022/12/11 02:08:25;;;;;;;16.73;7.53;;;-1.00;99.90;;;;;;4980901;28;20054;-32
2022/12/11 02:11:14;;;;;;;11.48;7.55;;;-0.90;99.90;;;;;;4983780;28;20057;-31
2022/12/11 02:13:46;;;;;;;10.23;5.65;;;-1.00;99.90;;;;;;4983631;28;20038;-30
2022/12/11 02:16:32;;;;;;;18.20;8.80;;;-1.00;99.90;;;;;;4987037;28;20088;-31
2022/12/11 02:19:05;;;;;;;11.70;7.43;;;-1.00;99.90;;;;;;4984980;28;20688;-31
2022/12/11 02:21:37;;;;;;;9.40;5.78;;;-1.00;99.90;;;;;;4983544;28;20084;-32
2022/12/11 02:24:21;;;;;;;8.55;6.85;;;-1.00;99.90;;;;;;4994385;28;20045;-32
2022/12/11 02:27:21;;;;;;;5.13;3.28;;;-1.10;99.90;;;;;;4983824;28;20723;-31
2022/12/11 02:29:52;;;;;;;10.25;7.30;;;-1.10;99.90;;;;;;4984729;28;20038;-34
2022/12/11 02:32:25;;;;;;;10.57;5.95;;;-1.10;99.90;;;;;;4980688;28;20100;-32
2022/12/11 02:34:56;;;;;;;13.80;6.72;;;-1.10;99.90;;;;;;4985167;28;20432;-34
2022/12/11 02:37:25;;;;;;;9.95;6.15;;;-1.10;99.90;;;;;;4984759;28;20037;-31
2022/12/11 02:39:53;;;;;;;14.88;6.85;;;-1.10;99.90;;;;;;4734015;28;20134;-40
2022/12/11 02:42:20;;;;;;;10.60;6.55;;;-1.00;99.90;;;;;;4986484;28;20065;-42
2022/12/11 02:44:48;;;;;;;10.57;4.97;;;-1.00;99.90;;;;;;4987934;28;20039;-43
2022/12/11 02:47:17;;;;;;;6.88;6.10;;;-1.00;99.90;;;;;;4984947;28;20022;-41
2022/12/11 02:49:46;;;;;;;8.88;5.57;;;-1.10;99.90;;;;;;4982895;28;20033;-42
2022/12/11 02:52:15;;;;;;;9.32;6.25;;;-1.20;99.90;;;;;;4986558;28;20034;-39
2022/12/11 02:54:43;;;;;;;11.52;7.45;;;-1.10;99.90;;;;;;4986777;28;20022;-39
2022/12/11 02:57:29;;;;;;;12.30;7.55;;;-1.10;99.90;;;;;;4987209;28;20669;-39
2022/12/11 02:59:55;;;;;;;6.32;5.75;;;-1.10;99.90;;;;;;4984951;28;20162;-38
2022/12/11 03:02:21;;;;;;;11.13;6.68;;;-1.00;99.90;;;;;;4985519;28;20518;-43
2022/12/11 03:04:47;;;;;;;11.63;6.65;;;-1.00;99.90;;;;;;4986991;28;20176;-41
2022/12/11 03:07:22;;;;;;;9.13;5.95;;;-1.00;99.90;;;;;;4986675;28;20054;-41
2022/12/11 03:09:48;;;;;;;3.28;3.13;;;-1.00;99.90;;;;;;4984702;28;20797;-40
2022/12/11 03:12:19;;;;;;;13.07;7.68;;;-1.20;99.90;;;;;;4989003;28;20038;-37
2022/12/11 03:14:46;;;;;;;6.40;4.47;;;-1.20;99.90;;;;;;4987650;28;20058;-43
2022/12/11 03:17:22;;;;;;;7.00;3.70;;;-1.20;99.90;;;;;;4986764;28;20064;-39
2022/12/11 03:20:23;;;;;;;3.90;3.60;;;-1.20;99.90;;;;;;4986120;28;20456;-42
2022/12/11 03:23:16;;;;;;;3.83;3.50;;;-1.20;99.90;;;;;;4988510;28;20145;-40
2022/12/11 03:25:50;;;;;;;8.15;5.63;;;-1.20;99.90;;;;;;4984675;28;20085;-40
2022/12/11 03:28:24;;;;;;;6.55;4.82;;;-1.20;99.90;;;;;;4980356;28;20134;-35
2022/12/11 03:30:52;;;;;;;6.07;5.28;;;-1.20;99.90;;;;;;4986559;28;20039;-40
2022/12/11 03:33:26;;;;;;;10.43;5.22;;;-1.20;99.90;;;;;;4986993;28;20045;-41
2022/12/11 03:35:59;;;;;;;7.68;4.40;;;-1.10;99.90;;;;;;4987056;28;20030;-40
2022/12/11 03:38:36;;;;;;;8.02;5.85;;;-1.20;99.90;;;;;;4986518;28;20026;-42
2022/12/11 03:41:07;;;;;;;4.50;3.97;;;-1.20;99.90;;;;;;4987073;28;20035;-40
2022/12/11 03:43:34;;;;;;;11.48;5.30;;;-1.10;99.90;;;;;;4986508;28;20085;-41
2022/12/11 03:46:00;;;;;;;7.07;5.78;;;-1.10;99.90;;;;;;4984555;28;20594;-38
2022/12/11 03:48:30;;;;;;;10.93;6.63;;;-1.10;99.90;;;;;;4987174;28;20066;-41
2022/12/11 03:50:57;;;;;;;9.27;6.35;;;-1.10;99.90;;;;;;4984566;28;20039;-40
2022/12/11 03:53:25;;;;;;;7.50;5.43;;;-1.00;99.90;;;;;;4987555;28;20531;-39
2022/12/11 03:55:52;;;;;;;14.85;5.47;;;-1.00;99.90;;;;;;4985842;28;20577;-41
2022/12/11 03:58:18;;;;;;;8.73;5.47;;;-0.90;99.90;;;;;;4986402;28;20034;-40
2022/12/11 04:00:44;;;;;;;9.23;6.18;;;-0.90;99.90;;;;;;4984758;28;20390;-35
2022/12/11 04:03:12;;;;;;;10.40;4.50;;;-0.90;99.90;;;;;;4988888;28;20033;-40
2022/12/11 04:05:42;;;;;;;5.80;3.47;;;-1.00;99.90;;;;;;4985572;28;20031;-40
2022/12/11 04:08:08;;;;;;;7.72;4.80;;;-1.00;99.90;;;;;;4989714;28;20480;-40
2022/12/11 04:10:34;;;;;;;13.18;7.03;;;-1.00;99.90;;;;;;4988110;28;20120;-40
2022/12/11 04:12:59;;;;;;;8.10;5.50;;;-1.00;99.90;;;;;;4986318;28;20030;-41
2022/12/11 04:15:25;;;;;;;7.13;5.15;;;-1.00;99.90;;;;;;4982846;28;20117;-36
2022/12/11 04:26:14;;;;;;;8.82;5.43;;;-1.20;99.90;;;;;;4987526;28;20049;-41
2022/12/11 04:28:41;;;;;;;11.52;6.13;;;-1.20;99.90;;;;;;4984004;28;20038;-39
2022/12/11 04:31:14;;;;;;;3.10;2.38;;;-1.20;99.90;;;;;;4983736;28;20621;-38
2022/12/11 04:33:40;;;;;;;7.63;4.72;;;-1.20;99.90;;;;;;4986773;28;20030;-40
2022/12/11 04:36:06;;;;;;;12.93;6.60;;;-1.30;99.90;;;;;;4968651;28;20041;-37
2022/12/11 04:38:34;;;;;;;10.77;6.20;;;-1.20;99.90;;;;;;4987179;28;20472;-41
2022/12/11 04:41:03;;;;;;;8.80;5.82;;;-1.20;99.90;;;;;;4981260;28;20023;-42
2022/12/11 04:43:28;;;;;;;2.10;2.10;;;-1.30;99.90;;;;;;4985449;28;20145;-37
2022/12/11 04:46:12;;;;;;;5.22;4.35;;;-1.30;99.90;;;;;;4979984;28;20215;-39
2022/12/11 04:48:38;;;;;;;4.93;3.53;;;-1.30;99.90;;;;;;4984053;28;20064;-39
2022/12/11 04:51:05;;;;;;;9.90;5.32;;;-1.30;99.90;;;;;;4986781;28;20706;-35
2022/12/11 04:53:31;;;;;;;7.32;4.95;;;-1.40;99.90;;;;;;4986185;28;20026;-42
2022/12/11 04:55:57;;;;;;;12.48;7.47;;;-1.30;99.90;;;;;;4984312;28;20030;-35
2022/12/11 04:58:24;;;;;;;13.63;5.03;;;-1.30;99.90;;;;;;4984434;28;20536;-40
2022/12/11 05:00:50;;;;;;;2.83;2.63;;;-1.30;99.90;;;;;;4984391;28;20038;-41
2022/12/11 05:03:16;;;;;;;13.02;7.25;;;-1.30;99.90;;;;;;4982489;28;20050;-42
2022/12/11 05:05:50;;;;;;;11.75;6.90;;;-1.30;99.90;;;;;;4982247;28;20042;-37
2022/12/11 05:08:17;;;;;;;6.28;5.03;;;-1.30;99.90;;;;;;4982661;28;20078;-39
2022/12/11 05:10:43;;;;;;;11.23;6.65;;;-1.20;99.90;;;;;;4986973;28;20114;-41
2022/12/11 05:13:08;;;;;;;3.15;1.40;;;-1.20;99.90;;;;;;4983066;28;20030;-37
2022/12/11 05:15:34;;;;;;;5.50;3.38;;;-1.20;99.90;;;;;;4982667;28;20030;-41
2022/12/11 05:17:59;;;;;;;2.60;2.35;;;-1.30;99.90;;;;;;4986354;28;20030;-39
2022/12/11 05:20:25;;;;;;;2.30;2.10;;;-1.30;99.90;;;;;;4982573;28;20046;-42
2022/12/11 05:22:51;;;;;;;10.68;7.53;;;-1.30;99.90;;;;;;4985489;28;20149;-36
2022/12/11 05:25:16;;;;;;;9.40;6.32;;;-1.30;99.90;;;;;;4989356;28;20030;-39
2022/12/11 05:27:42;;;;;;;2.78;2.63;;;-1.30;99.90;;;;;;4985782;28;20481;-42
2022/12/11 05:30:09;;;;;;;5.47;4.68;;;-1.30;99.90;;;;;;4984033;28;20034;-40
2022/12/11 05:32:34;;;;;;;1.73;1.70;;;-1.40;99.90;;;;;;4985078;28;20110;-38
2022/12/11 05:35:00;;;;;;;8.60;4.82;;;-1.30;99.90;;;;;;4984904;28;20046;-41
2022/12/11 05:37:26;;;;;;;7.75;4.10;;;-1.30;99.90;;;;;;4985357;28;20052;-41
2022/12/11 05:39:51;;;;;;;13.27;7.15;;;-1.30;99.90;;;;;;4983077;28;20072;-38
2022/12/11 05:42:17;;;;;;;5.80;4.55;;;-1.30;99.90;;;;;;4985935;28;20105;-40
2022/12/11 05:44:43;;;;;;;4.43;4.03;;;-1.30;99.90;;;;;;4981292;28;20373;-35
2022/12/11 05:47:08;;;;;;;14.07;7.53;;;-1.30;99.90;;;;;;4987724;28;20829;-38
2022/12/11 05:49:34;;;;;;;9.77;4.25;;;-1.30;99.90;;;;;;4985214;28;20023;-40
2022/12/11 05:51:59;;;;;;;16.10;6.57;;;-1.30;99.90;;;;;;4984823;28;20030;-36
2022/12/11 05:54:25;;;;;;;5.10;2.92;;;-1.40;99.90;;;;;;4979586;28;20047;-37
2022/12/11 05:56:51;;;;;;;5.72;5.18;;;-1.40;99.90;;;;;;4985089;28;20030;-38
2022/12/11 05:59:18;;;;;;;7.93;6.22;;;-1.30;99.90;;;;;;4981222;28;20034;-37
2022/12/11 06:01:44;;;;;;;11.88;7.05;;;-1.40;99.90;;;;;;4983518;28;20042;-41
2022/12/11 06:04:11;;;;;;;10.90;6.47;;;-1.30;99.90;;;;;;4988016;28;20488;-42
2022/12/11 06:06:39;;;;;;;13.70;7.03;;;-1.30;99.90;;;;;;4986128;28;20409;-42
2022/12/11 06:09:05;;;;;;;7.68;5.78;;;-1.20;99.90;;;;;;4986585;28;20030;-41
2022/12/11 06:11:32;;;;;;;15.27;7.63;;;-1.30;99.90;;;;;;4986237;28;20040;-42
2022/12/11 06:13:59;;;;;;;14.18;6.45;;;-1.50;99.90;;;;;;4989350;28;20145;-40
2022/12/11 06:16:24;;;;;;;8.60;5.18;;;-1.50;99.90;;;;;;4985348;28;20042;-40
2022/12/11 06:18:50;;;;;;;5.38;4.32;;;-1.70;99.90;;;;;;4987484;28;20061;-35
2022/12/11 06:21:23;;;;;;;10.02;5.82;;;-1.80;99.90;;;;;;4987374;28;20046;-38
2022/12/11 06:23:51;;;;;;;7.45;5.68;;;-1.80;99.90;;;;;;4988640;28;20117;-39
2022/12/11 06:26:17;;;;;;;4.03;3.65;;;-1.80;99.90;;;;;;4982994;28;20030;-38
2022/12/11 06:28:44;;;;;;;4.25;3.42;;;-1.90;99.90;;;;;;4987261;28;20035;-38
2022/12/11 06:31:10;;;;;;;8.68;6.45;;;-1.90;99.90;;;;;;4984888;28;20058;-41
2022/12/11 06:33:36;;;;;;;5.53;3.55;;;-2.00;99.90;;;;;;4986876;28;20492;-41
2022/12/11 06:36:04;;;;;;;13.57;7.38;;;-2.00;99.90;;;;;;4985660;28;20046;-38
2022/12/11 06:38:30;;;;;;;9.07;5.90;;;-2.00;99.90;;;;;;4991134;28;20030;-38
2022/12/11 06:40:58;;;;;;;2.75;2.53;;;-2.10;99.90;;;;;;4984289;28;20070;-38
2022/12/11 06:43:23;;;;;;;2.00;1.90;;;-2.30;99.90;;;;;;4987227;28;20101;-37
2022/12/11 06:45:50;;;;;;;19.33;6.82;;;-2.50;99.90;;;;;;4983855;28;20480;-38
2022/12/11 06:48:15;;;;;;;5.70;5.15;;;-2.50;99.90;;;;;;4983696;28;20507;-39
2022/12/11 06:50:41;;;;;;;10.43;6.85;;;-2.40;99.90;;;;;;4984913;28;20137;-40
2022/12/11 06:53:08;;;;;;;9.10;6.15;;;-2.40;99.90;;;;;;4987405;28;20608;-41
2022/12/11 06:55:35;;;;;;;9.60;6.97;;;-2.30;99.90;;;;;;4989409;28;20022;-41
2022/12/11 06:58:01;;;;;;;13.13;6.05;;;-2.20;99.90;;;;;;4984918;28;20113;-40
2022/12/11 07:00:27;;;;;;;10.55;6.22;;;-2.10;99.90;;;;;;5000684;28;20122;-41
2022/12/11 07:02:53;;;;;;;11.45;6.07;;;-2.00;99.90;;;;;;4986886;28;20542;-37
2022/12/11 07:05:18;;;;;;;10.50;6.93;;;-2.20;99.90;;;;;;4988216;28;20460;-38
2022/12/11 07:07:44;;;;;;;12.50;6.43;;;-2.20;99.90;;;;;;4985978;28;20090;-36
2022/12/11 07:10:10;;;;;;;12.48;7.88;;;-2.20;99.90;;;;;;4984055;28;20715;-39
2022/12/11 07:12:36;;;;;;;6.25;4.80;;;-2.20;99.90;;;;;;4986040;28;20035;-40
2022/12/11 07:15:03;;;;;;;8.50;6.28;;;-2.20;99.90;;;;;;4987926;28;20038;-39
2022/12/11 07:17:29;;;;;;;11.90;5.82;;;-2.20;99.90;;;;;;4984770;28;20034;-40
2022/12/11 07:19:55;;;;;;;15.13;8.20;;;-2.20;99.90;;;;;;4988087;28;20023;-36
2022/12/11 07:22:21;;;;;;;12.20;8.13;;;-2.10;99.90;;;;;;4986821;28;20045;-42
2022/12/11 07:24:46;;;;;;;9.55;6.22;;;-2.10;99.90;;;;;;4984321;28;20105;-38
2022/12/11 07:27:12;;;;;;;12.65;5.57;;;-2.10;99.90;;;;;;4983600;28;20034;-39
2022/12/11 07:29:37;;;;;;;9.68;6.50;;;-2.20;99.90;;;;;;4980091;28;20125;-39
2022/12/11 07:32:04;;;;;;;8.75;6.05;;;-2.30;99.90;;;;;;4984969;28;20703;-38
2022/12/11 07:34:29;;;;;;;9.25;6.95;;;-2.30;99.90;;;;;;4983869;28;20042;-41
2022/12/11 07:36:55;;;;;;;12.88;6.22;;;-2.30;99.90;;;;;;4982884;28;20039;-41
2022/12/11 07:39:21;;;;;;;8.80;5.32;;;-2.30;99.90;;;;;;4986978;28;20527;-40
2022/12/11 07:41:46;;;;;;;11.15;6.40;;;-2.30;99.90;;;;;;4983010;28;20039;-38
2022/12/11 07:44:12;;;;;;;10.38;7.65;;;-2.40;99.90;;;;;;4988054;28;20027;-40
2022/12/11 07:46:38;;;;;;;2.13;2.05;;;-2.40;99.90;;;;;;4987325;28;20030;-39
2022/12/11 07:49:05;;;;;;;2.40;2.30;;;-2.50;99.90;;;;;;4982038;28;20104;-38
2022/12/11 07:51:36;;;;;;;7.95;4.95;;;-2.60;99.90;;;;;;4983774;28;20018;-41
2022/12/11 07:54:05;;;;;;;3.70;3.42;;;-2.50;99.90;;;;;;4986310;28;20042;-39
2022/12/11 07:56:31;;;;;;;3.67;2.95;;;-2.60;99.90;;;;;;4983130;28;20641;-39
2022/12/11 07:59:01;;;;;;;3.97;3.78;;;-2.80;99.90;;;;;;4979973;28;20035;-37
2022/12/11 08:01:28;;;;;;;5.63;3.67;;;-2.80;99.90;;;;;;4984004;28;20061;-39
2022/12/11 08:03:55;;;;;;;6.03;4.38;;;-2.80;99.90;;;;;;4984205;28;20488;-40
2022/12/11 08:06:27;;;;;;;3.65;3.45;;;-2.90;99.90;;;;;;4983571;28;20096;-41
2022/12/11 08:08:54;;;;;;;10.85;6.13;;;-2.80;99.90;;;;;;4986274;28;20073;-41
2022/12/11 08:11:19;;;;;;;4.00;3.45;;;-2.80;99.90;;;;;;4983333;28;20039;-40
2022/12/11 08:13:45;;;;;;;4.05;2.83;;;-2.80;99.90;;;;;;4980308;28;20066;-40
2022/12/11 08:16:13;;;;;;;8.80;5.90;;;-2.90;99.90;;;;;;4980270;28;20061;-42
2022/12/11 08:18:40;;;;;;;11.17;6.30;;;-2.80;99.90;;;;;;4982129;28;20033;-40
2022/12/11 08:21:13;;;;;;;3.92;3.63;;;-2.80;99.90;;;;;;4983119;28;20030;-39
2022/12/11 08:23:39;;;;;;;3.53;3.20;;;-2.80;99.90;;;;;;4983792;28;20030;-40
2022/12/11 08:26:10;;;;;;;8.90;5.65;;;-2.70;99.90;;;;;;4982202;28;20023;-38
2022/12/11 08:28:36;;;;;;;3.15;3.05;;;-2.70;99.90;;;;;;4984562;28;20034;-39
2022/12/11 08:31:08;;;;;;;2.55;2.42;;;-2.70;99.90;;;;;;4986165;28;20038;-42
2022/12/11 08:33:36;;;;;;;5.57;3.45;;;-2.70;99.90;;;;;;4986615;28;20034;-40
2022/12/11 08:36:06;;;;;;;11.63;7.18;;;-2.70;99.90;;;;;;4984592;28;20022;-38
2022/12/11 08:38:33;;;;;;;3.38;2.42;;;-2.60;99.90;;;;;;4982834;28;20057;-40
2022/12/11 08:41:06;;;;;;;3.83;3.25;;;-2.70;99.90;;;;;;4985254;28;20092;-40
2022/12/11 08:43:32;;;;;;;5.28;4.03;;;-2.70;99.90;;;;;;4984941;28;20041;-39
2022/12/11 08:45:58;;;;;;;5.45;4.93;;;-2.60;99.90;;;;;;4980571;28;20061;-38
2022/12/11 08:48:23;;;;;;;5.15;4.50;;;-2.60;99.90;;;;;;4983614;28;20097;-39
2022/12/11 08:50:49;;;;;;;12.27;6.78;;;-2.50;99.90;;;;;;4984273;28;20073;-41
2022/12/11 08:53:14;;;;;;;14.50;7.57;;;-2.50;99.90;;;;;;4983742;28;20031;-40
2022/12/11 08:55:40;;;;;;;4.82;4.18;;;-2.40;99.90;;;;;;4981559;28;20676;-39
2022/12/11 08:58:06;;;;;;;7.22;4.90;;;-2.40;99.90;;;;;;4981638;28;20615;-36
2022/12/11 09:00:32;;;;;;;12.93;7.35;;;-2.30;99.90;;;;;;4978181;28;20039;-38
2022/12/11 09:02:57;;;;;;;3.08;2.95;;;-2.30;99.90;;;;;;4980239;28;20138;-38
2022/12/11 09:05:23;;;;;;;9.82;6.80;;;-2.30;99.90;;;;;;4981886;28;20042;-39
2022/12/11 09:07:49;;;;;;;3.13;2.92;;;-2.20;99.90;;;;;;4983170;28;20065;-37
2022/12/11 09:10:14;;;;;;;5.05;3.92;;;-2.20;99.90;;;;;;4981324;28;20405;-39
2022/12/11 09:12:40;;;;;;;4.85;4.55;;;-2.20;99.90;;;;;;4977685;28;20636;-40
2022/12/11 09:15:06;;;;;;;7.72;5.43;;;-2.10;99.90;;;;;;4979011;28;20030;-33
2022/12/11 09:17:33;;;;;;;11.95;6.18;;;-2.10;99.90;;;;;;4981410;28;20066;-39
2022/12/11 09:19:58;;;;;;;3.67;2.75;;;-2.00;99.90;;;;;;4979639;28;20057;-40
2022/12/11 09:22:24;;;;;;;7.05;3.85;;;-2.00;99.90;;;;;;4981023;28;20134;-40
2022/12/11 09:24:50;;;;;;;8.38;5.07;;;-2.00;99.90;;;;;;4979297;28;20015;-36
2022/12/11 09:27:15;;;;;;;8.30;4.93;;;-2.00;99.90;;;;;;4981632;28;20041;-36
2022/12/11 09:29:41;;;;;;;10.68;5.80;;;-1.90;99.90;;;;;;4980243;28;20736;-39
2022/12/11 09:32:07;;;;;;;4.20;3.90;;;-1.90;99.90;;;;;;4981235;28;20038;-40
2022/12/11 09:34:32;;;;;;;3.97;2.63;;;-1.90;99.90;;;;;;4987026;28;20468;-39
2022/12/11 09:36:58;;;;;;;5.82;4.85;;;-1.90;99.90;;;;;;4981970;28;20118;-36
2022/12/11 09:39:24;;;;;;;10.07;5.72;;;-1.90;99.90;;;;;;4977345;28;20503;-39
2022/12/11 09:41:55;;;;;;;4.72;3.65;;;-1.90;99.90;;;;;;4978630;28;20045;-42
2022/12/11 09:44:33;;;;;;;4.75;4.15;;;-1.80;99.90;;;;;;4977773;28;20104;-41
2022/12/11 09:47:00;;;;;;;4.55;4.22;;;-1.80;99.90;;;;;;4979789;28;20460;-41
2022/12/11 09:49:33;;;;;;;4.07;3.67;;;-1.80;99.90;;;;;;4981984;28;20035;-41
2022/12/11 09:52:06;;;;;;;5.00;4.18;;;-1.70;99.90;;;;;;4985525;28;20163;-33
2022/12/11 09:54:32;;;;;;;5.65;4.93;;;-1.60;99.90;;;;;;4982352;28;20697;-35
2022/12/11 09:57:10;;;;;;;3.28;3.08;;;-1.60;99.90;;;;;;4979885;28;20153;-39
2022/12/11 10:00:15;;;;;;;2.65;2.50;;;-1.60;99.90;;;;;;4979818;28;20034;-40
2022/12/11 10:03:20;;;;;;;3.03;2.55;;;-1.60;99.90;;;;;;4980656;28;20042;-38
2022/12/11 10:06:01;;;;;;;5.93;4.78;;;-1.60;99.90;;;;;;4976552;28;20073;-41
2022/12/11 10:08:37;;;;;;;5.15;4.80;;;-1.70;99.90;;;;;;4973257;28;20042;-35
2022/12/11 10:11:40;;;;;;;5.18;4.32;;;-1.70;99.90;;;;;;4975956;28;20037;-42
2022/12/11 10:14:30;;;;;;;7.40;4.45;;;-1.70;99.90;;;;;;4977179;28;20791;-34
2022/12/11 10:17:04;;;;;;;4.75;3.60;;;-1.60;99.90;;;;;;4979871;28;20146;-42
2022/12/11 10:19:31;;;;;;;3.42;3.03;;;-1.70;99.90;;;;;;4974475;28;20018;-39
2022/12/11 10:21:59;;;;;;;4.78;4.00;;;-1.70;99.90;;;;;;4981609;28;20030;-38
2022/12/11 10:24:38;;;;;;;7.13;5.88;;;-1.60;99.90;;;;;;4980248;28;20164;-41
2022/12/11 10:27:20;;;;;;;5.95;5.25;;;-1.50;99.90;;;;;;4980360;28;20038;-36
2022/12/11 10:30:04;;;;;;;13.73;6.28;;;-1.50;99.90;;;;;;4977157;28;20043;-42
2022/12/11 10:32:59;;;;;;;6.32;4.22;;;-1.50;99.90;;;;;;4975232;28;20038;-35
2022/12/11 10:35:32;;;;;;;5.57;3.60;;;-1.60;99.90;;;;;;4978031;28;20034;-39
2022/12/11 10:38:11;;;;;;;3.95;3.60;;;-1.60;99.90;;;;;;4978801;28;20088;-35
2022/12/11 10:40:41;;;;;;;8.80;5.43;;;-1.60;99.90;;;;;;4972238;28;20491;-38
2022/12/11 10:43:07;;;;;;;2.85;2.65;;;-1.40;99.90;;;;;;4977344;28;20038;-37
2022/12/11 10:45:33;;;;;;;3.33;2.85;;;-1.40;99.90;;;;;;4973701;28;20033;-41
2022/12/11 10:48:04;;;;;;;14.73;8.20;;;-1.40;99.90;;;;;;4975449;28;20484;-37
2022/12/11 10:50:29;;;;;;;5.70;4.07;;;-1.40;99.90;;;;;;4973727;28;20041;-40
2022/12/11 10:52:56;;;;;;;14.95;7.32;;;-1.40;99.90;;;;;;4972090;28;20499;-38
2022/12/11 10:55:27;;;;;;;5.95;4.55;;;-1.40;99.90;;;;;;4975638;28;20056;-41
2022/12/11 10:57:59;;;;;;;12.85;7.60;;;-1.40;99.90;;;;;;4977414;28;20031;-37
2022/12/11 11:00:28;;;;;;;4.10;3.70;;;-1.30;99.90;;;;;;4977366;28;20488;-36
2022/12/11 11:02:54;;;;;;;5.07;4.57;;;-1.30;99.90;;;;;;4975644;28;20035;-39
2022/12/11 11:05:34;;;;;;;2.20;2.10;;;-1.20;99.90;;;;;;4974718;28;20148;-36
2022/12/11 11:08:18;;;;;;;7.60;5.72;;;-1.10;99.90;;;;;;4977427;28;20057;-38
2022/12/11 11:10:55;;;;;;;5.95;4.10;;;-1.20;99.90;;;;;;4980014;28;20038;-33
2022/12/11 11:13:23;;;;;;;1.65;1.65;;;-1.20;99.90;;;;;;4984065;28;20088;-40
2022/12/11 11:16:17;;;;;;;4.65;3.97;;;-1.20;99.90;;;;;;4982245;28;20054;-38
2022/12/11 11:18:52;;;;;;;4.20;3.60;;;-1.10;99.90;;;;;;4998211;28;20537;-41
2022/12/11 11:21:20;;;;;;;4.30;3.50;;;-1.00;99.90;;;;;;4998462;28;20026;-39
2022/12/11 11:23:46;;;;;;;4.55;4.10;;;-1.00;99.90;;;;;;4984587;28;20045;-41
2022/12/11 11:26:12;;;;;;;4.80;4.28;;;-1.00;99.90;;;;;;4984449;28;20035;-36
2022/12/11 11:28:56;;;;;;;9.20;3.83;;;-1.00;99.90;;;;;;4984675;28;20034;-39
2022/12/11 11:31:33;;;;;;;8.05;5.45;;;-1.10;99.90;;;;;;4980341;28;20049;-39
2022/12/11 11:34:06;;;;;;;6.43;3.90;;;-1.20;99.90;;;;;;4999852;28;20082;-35
2022/12/11 11:36:34;;;;;;;4.65;2.75;;;-1.20;99.90;;;;;;4983833;28;20514;-40
2022/12/11 11:39:34;;;;;;;6.60;4.90;;;-1.20;99.90;;;;;;4983728;28;20037;-39
2022/12/11 11:42:05;;;;;;;6.35;4.63;;;-1.20;99.90;;;;;;4983028;28;20436;-38
2022/12/11 11:44:37;;;;;;;4.20;3.40;;;-1.20;99.90;;;;;;4981636;28;20026;-40
2022/12/11 11:47:18;;;;;;;4.05;2.72;;;-1.20;99.90;;;;;;4983492;28;20428;-41
2022/12/11 11:49:59;;;;;;;4.63;3.30;;;-1.20;99.90;;;;;;4980291;28;20403;-39
2022/12/11 11:52:28;;;;;;;6.72;5.43;;;-1.10;99.90;;;;;;4980280;28;20403;-42
2022/12/11 11:55:15;;;;;;;7.15;4.07;;;-1.10;99.90;;;;;;4978446;28;20046;-40
2022/12/11 11:57:48;;;;;;;8.00;2.95;;;-1.00;99.90;;;;;;4978766;28;20088;-41
2022/12/11 12:00:20;;;;;;;8.20;4.95;;;-0.90;99.90;;;;;;4991978;28;20085;-40
2022/12/11 12:02:50;;;;;;;9.43;5.82;;;-0.90;99.90;;;;;;4981317;28;20165;-41
2022/12/11 12:05:21;;;;;;;7.68;4.78;;;-1.00;99.90;;;;;;4974902;28;20105;-37
2022/12/11 12:08:11;;;;;;;7.30;4.90;;;-1.00;99.90;;;;;;4978816;28;20046;-39
2022/12/11 12:10:51;;;;;;;9.13;5.45;;;-1.00;99.90;;;;;;4981781;28;20030;-39
2022/12/11 12:13:29;;;;;;;9.18;5.05;;;-1.00;99.90;;;;;;4983568;28;20824;-39
2022/12/11 12:15:56;;;;;;;15.05;7.57;;;-1.00;99.90;;;;;;4992412;28;20027;-38
2022/12/11 12:18:28;;;;;;;10.27;5.43;;;-0.80;99.90;;;;;;4981072;28;20114;-41
2022/12/11 12:21:17;;;;;;;8.88;6.10;;;-0.90;99.90;;;;;;4983133;28;20273;-38
2022/12/11 12:23:53;;;;;;;9.02;5.50;;;-0.70;99.90;;;;;;4981962;28;20092;-37
2022/12/11 12:26:27;;;;;;;6.38;4.18;;;-0.60;99.90;;;;;;4980973;28;20114;-40
2022/12/11 12:29:25;;;;;;;6.57;5.05;;;-0.60;99.90;;;;;;4979488;28;20590;-41
2022/12/11 12:32:08;;;;;;;5.77;3.63;;;-0.60;99.90;;;;;;4975262;28;20027;-35
2022/12/11 12:34:43;;;;;;;3.88;2.90;;;-0.60;99.90;;;;;;4975579;28;20787;-38
2022/12/11 12:37:18;;;;;;;4.55;3.33;;;-0.70;99.90;;;;;;4977252;28;20034;-38
2022/12/11 12:39:57;;;;;;;2.38;2.17;;;-0.70;99.90;;;;;;4982520;28;20060;-34
2022/12/11 12:42:45;;;;;;;22.63;15.23;;;-0.70;99.90;;;;;;4977720;28;20431;-40
2022/12/11 12:45:13;;;;;;;25.13;16.55;;;-0.60;99.90;;;;;;4980469;28;20026;-40
2022/12/11 12:47:45;;;;;;;15.57;10.98;;;-0.60;99.90;;;;;;4975617;28;20038;-38
2022/12/11 12:50:17;;;;;;;24.25;14.15;;;-0.60;99.90;;;;;;4982756;28;20100;-39
2022/12/11 12:52:43;;;;;;;3.33;3.15;;;-0.70;99.90;;;;;;4976268;28;20121;-41
2022/12/11 12:55:16;;;;;;;21.60;12.00;;;-0.70;99.90;;;;;;4980564;28;20034;-37
2022/12/11 12:57:50;;;;;;;4.07;3.67;;;-0.60;99.90;;;;;;4979379;28;20483;-39
2022/12/11 13:00:28;;;;;;;3.05;2.85;;;-0.70;99.90;;;;;;4977612;28;20109;-39
2022/12/11 13:02:55;;;;;;;8.63;7.07;;;-0.70;99.90;;;;;;4977920;28;20042;-39
2022/12/11 13:05:31;;;;;;;3.95;3.63;;;-0.70;99.90;;;;;;4978245;28;20399;-36